Gumbo, Missouri
Current Conditions -  °F | °C
As of 12:54 PM on Friday 24 Oct 2014 (Local Time) from KSUS Reporting Station
Broken Clouds Broken Clouds  
Wind Chill: 69°   Ceiling: 20000
Heat Index: 69°   Visibility: 10mi
Dew Point: 53°   Wind: 7mph
Humidity: 57%   Direction: 220°SW
Pressure: 30.08"   Gusts: NA
Location:  38.6405°N, 90.6464°W
Report Text: KSUS 241754Z 22006KT 10SM BKN200 21/12 A3008 RMK AO2 SLP182 T02060117 10206 20100 58015
Loading
Personal Weather Stations






























Interactive Weather Map
Tropical Storm Tracking
New forecast layout! Learn more

10-Day Weather Forecast

Advertisements
Track Severe Weather on mobile